createdAt,value
2023-05-09T00:00:37.561Z,3.40
2023-05-09T00:01:39.150Z,3.40
2023-05-09T00:02:40.798Z,2.97
2023-05-09T00:03:42.525Z,3.55
2023-05-09T00:04:44.338Z,3.75
2023-05-09T00:05:45.960Z,3.65
2023-05-09T00:06:47.604Z,3.50
2023-05-09T00:07:49.248Z,4.00
2023-05-09T00:08:50.847Z,3.60
2023-05-09T00:09:52.419Z,3.70
2023-05-09T00:10:54.058Z,3.55
2023-05-09T00:11:55.682Z,3.63
2023-05-09T00:12:57.277Z,3.80
2023-05-09T00:13:59.003Z,3.67
2023-05-09T00:15:00.616Z,3.50
2023-05-09T00:16:02.354Z,3.42
2023-05-09T00:17:04.031Z,3.20
2023-05-09T00:18:05.659Z,3.45
2023-05-09T00:19:07.268Z,3.35
2023-05-09T00:20:09.170Z,3.10
2023-05-09T00:21:11.077Z,2.75
2023-05-09T00:22:12.660Z,3.00
2023-05-09T00:23:14.350Z,3.38
2023-05-09T00:24:15.903Z,2.90
2023-05-09T00:25:17.637Z,3.20
2023-05-09T00:26:19.316Z,2.85
2023-05-09T00:27:20.858Z,2.90
2023-05-09T00:28:22.437Z,3.15
2023-05-09T00:29:24.046Z,2.97
2023-05-09T00:30:25.606Z,2.65
2023-05-09T00:31:27.236Z,2.95
2023-05-09T00:32:28.886Z,2.90
2023-05-09T00:33:30.745Z,2.88
2023-05-09T00:34:32.501Z,3.20
2023-05-09T00:35:35.095Z,2.90
2023-05-09T00:36:36.645Z,3.03
2023-05-09T00:37:38.266Z,2.88
2023-05-09T00:38:39.835Z,2.72
2023-05-09T00:39:41.422Z,2.95
2023-05-09T00:40:42.957Z,2.90
2023-05-09T00:41:44.514Z,2.88
2023-05-09T00:42:46.125Z,2.70
2023-05-09T00:43:47.696Z,2.75
2023-05-09T00:44:49.264Z,3.00
2023-05-09T00:45:50.906Z,3.08
2023-05-09T00:46:52.482Z,2.30
2023-05-09T00:47:54.107Z,3.05
2023-05-09T00:48:55.878Z,3.13
2023-05-09T00:49:58.419Z,2.85
2023-05-09T00:51:00.046Z,2.90
2023-05-09T00:52:02.300Z,2.63
2023-05-09T00:53:04.437Z,2.43
2023-05-09T00:54:08.455Z,2.70
2023-05-09T00:55:11.519Z,2.90
2023-05-09T00:56:13.883Z,3.00
2023-05-09T00:57:15.578Z,3.33
2023-05-09T00:58:17.141Z,2.65
2023-05-09T00:59:18.827Z,2.85
2023-05-09T01:00:20.402Z,3.22
2023-05-09T01:01:21.986Z,2.65
2023-05-09T01:02:23.663Z,2.50
2023-05-09T01:03:25.386Z,2.83
2023-05-09T01:04:27.056Z,3.17
2023-05-09T01:05:31.419Z,2.60
2023-05-09T01:06:37.275Z,3.10
2023-05-09T01:07:47.824Z,2.75
2023-05-09T01:08:59.016Z,2.83
2023-05-09T01:10:08.120Z,2.80
2023-05-09T01:11:11.466Z,2.80
2023-05-09T01:12:25.902Z,2.97
2023-05-09T01:13:32.098Z,2.83
2023-05-09T01:14:38.009Z,2.60
2023-05-09T01:15:43.496Z,2.50
2023-05-09T01:16:51.861Z,2.83
2023-05-09T01:17:53.432Z,2.20
2023-05-09T01:18:59.160Z,2.70
2023-05-09T01:20:17.103Z,3.00
2023-05-09T01:21:23.975Z,3.20
2023-05-09T01:22:36.431Z,2.83
2023-05-09T01:23:44.257Z,2.50
2023-05-09T01:24:45.859Z,3.08
2023-05-09T01:25:59.688Z,2.83
2023-05-09T01:27:01.221Z,3.13
2023-05-09T01:28:08.912Z,2.70
2023-05-09T01:29:29.050Z,2.80
2023-05-09T01:30:31.275Z,2.90
2023-05-09T01:31:34.749Z,3.00
2023-05-09T01:32:38.340Z,2.67
2023-05-09T01:33:41.619Z,2.90
2023-05-09T01:34:47.829Z,3.03
2023-05-09T01:35:51.712Z,2.75
2023-05-09T01:36:56.163Z,3.63
2023-05-09T01:37:58.682Z,2.78
2023-05-09T01:39:02.126Z,3.20
2023-05-09T01:40:08.122Z,3.22
2023-05-09T01:41:11.093Z,3.05
2023-05-09T01:42:13.213Z,2.80
2023-05-09T01:43:15.880Z,2.38
2023-05-09T01:44:17.993Z,2.92
2023-05-09T01:45:20.123Z,2.97
2023-05-09T01:48:42.184Z,2.58
2023-05-09T01:49:44.699Z,3.17
2023-05-09T01:50:46.576Z,2.63
2023-05-09T01:51:48.556Z,2.70
2023-05-09T01:52:52.335Z,2.67
2023-05-09T01:53:55.670Z,2.38
2023-05-09T01:54:58.220Z,2.63
2023-05-09T01:56:00.501Z,2.28
2023-05-09T01:57:03.570Z,2.63
2023-05-09T01:58:06.444Z,2.50
2023-05-09T01:59:08.362Z,2.80
2023-05-09T02:00:10.500Z,2.75
2023-05-09T02:01:12.241Z,2.60
2023-05-09T02:02:14.889Z,2.53
2023-05-09T02:03:16.707Z,2.70
2023-05-09T02:04:19.021Z,2.50
2023-05-09T02:05:21.431Z,2.75
2023-05-09T02:06:23.626Z,2.90
2023-05-09T02:07:25.512Z,2.88
2023-05-09T02:08:27.516Z,2.67
2023-05-09T02:09:29.131Z,3.17
2023-05-09T02:10:30.855Z,2.70
2023-05-09T02:11:32.586Z,2.72
2023-05-09T02:12:34.191Z,2.90
2023-05-09T02:13:35.732Z,3.33
2023-05-09T02:14:37.328Z,3.55
2023-05-09T02:15:39.054Z,3.22
2023-05-09T02:16:40.786Z,2.85
2023-05-09T02:17:42.536Z,2.83
2023-05-09T02:18:44.086Z,2.90
2023-05-09T02:19:45.782Z,3.08
2023-05-09T02:20:47.417Z,3.15
2023-05-09T02:21:49.224Z,3.40
2023-05-09T02:22:50.911Z,3.20
2023-05-09T02:23:52.488Z,2.75
2023-05-09T02:24:54.174Z,3.20
2023-05-09T02:25:56.005Z,2.85
2023-05-09T02:26:57.711Z,2.60
2023-05-09T02:27:59.618Z,2.90
2023-05-09T02:29:02.561Z,3.33
2023-05-09T02:36:29.177Z,3.20
2023-05-09T02:37:30.980Z,3.63
2023-05-09T02:38:32.792Z,2.90
2023-05-09T02:39:34.957Z,2.97
2023-05-09T02:41:38.853Z,3.40
2023-05-09T02:42:40.498Z,3.40
2023-05-09T02:43:42.197Z,3.00
2023-05-09T02:44:43.769Z,2.63
2023-05-09T02:45:45.472Z,3.10
2023-05-09T02:52:58.344Z,2.95
2023-05-09T02:53:59.942Z,2.80
2023-05-09T02:55:01.557Z,2.70
2023-05-09T02:57:05.441Z,2.85
2023-05-09T02:58:13.952Z,3.00
2023-05-09T02:59:18.406Z,2.78
2023-05-09T03:00:20.194Z,2.47
2023-05-09T03:06:31.464Z,2.42
2023-05-09T03:07:33.157Z,2.50
2023-05-09T03:08:34.740Z,2.53
2023-05-09T03:09:36.400Z,2.63
2023-05-09T03:10:38.018Z,2.93
2023-05-09T03:11:39.640Z,2.92
2023-05-09T03:12:41.242Z,2.83
2023-05-09T03:16:49.292Z,3.80
2023-05-09T03:17:50.862Z,2.38
2023-05-09T03:18:52.470Z,2.60
2023-05-09T03:19:54.047Z,2.92
2023-05-09T03:20:55.656Z,2.47
2023-05-09T03:21:57.241Z,2.90
2023-05-09T03:22:58.897Z,2.88
2023-05-09T03:24:00.471Z,3.30
2023-05-09T03:25:02.304Z,2.67
2023-05-09T03:26:03.928Z,2.47
2023-05-09T03:27:05.426Z,2.60
2023-05-09T03:28:07.026Z,3.00
2023-05-09T03:29:08.640Z,2.67
2023-05-09T03:30:10.428Z,2.97
2023-05-09T03:31:12.038Z,3.00
2023-05-09T03:39:30.366Z,3.20
2023-05-09T03:40:32.005Z,2.80
2023-05-09T03:42:35.416Z,2.90
2023-05-09T03:43:37.049Z,2.33
2023-05-09T03:44:38.619Z,2.80
2023-05-09T03:46:42.194Z,2.60
2023-05-09T03:49:47.992Z,2.78
2023-05-09T03:50:49.572Z,3.40
2023-05-09T03:51:51.120Z,5.03
2023-05-09T03:52:52.667Z,4.53
2023-05-09T03:54:56.154Z,4.65
2023-05-09T03:55:57.746Z,4.00
2023-05-09T03:56:59.309Z,4.07
2023-05-09T04:02:09.297Z,3.20
2023-05-09T04:03:11.060Z,2.92
2023-05-09T04:04:12.828Z,3.17
2023-05-09T04:05:15.304Z,2.80
2023-05-09T04:06:17.181Z,3.00
2023-05-09T04:07:19.160Z,2.75
2023-05-09T04:13:30.472Z,2.80
2023-05-09T04:25:52.558Z,2.42
2023-05-09T04:26:54.158Z,2.55
2023-05-09T04:27:55.672Z,2.90
2023-05-09T04:28:57.254Z,2.40
2023-05-09T04:29:58.794Z,2.88
2023-05-09T04:31:00.600Z,2.67
2023-05-09T04:32:02.582Z,3.00
2023-05-09T04:33:04.284Z,2.97
2023-05-09T04:34:05.895Z,2.95
2023-05-09T04:35:07.759Z,2.70
2023-05-09T04:36:09.343Z,2.38
2023-05-09T04:37:10.948Z,2.60
2023-05-09T04:38:12.476Z,2.30
2023-05-09T04:39:14.025Z,2.40
2023-05-09T04:40:15.688Z,2.42
2023-05-09T04:42:19.072Z,3.30
2023-05-09T04:47:28.345Z,2.50
2023-05-09T04:48:30.049Z,2.38
2023-05-09T04:49:31.625Z,2.08
2023-05-09T04:50:33.169Z,2.70
2023-05-09T04:51:34.704Z,2.15
2023-05-09T04:57:45.578Z,5.38
2023-05-09T05:00:52.205Z,2.42
2023-05-09T05:01:53.763Z,1.98
2023-05-09T05:02:55.436Z,2.17
2023-05-09T05:03:56.976Z,1.63
2023-05-09T05:05:10.114Z,2.10
2023-05-09T05:06:13.464Z,2.42
2023-05-09T05:07:15.101Z,1.88
2023-05-09T05:08:16.657Z,2.00
2023-05-09T05:09:18.284Z,1.67
2023-05-09T05:10:20.381Z,1.90
2023-05-09T05:11:21.962Z,2.15
2023-05-09T05:13:25.361Z,2.15
2023-05-09T05:15:28.799Z,2.22
2023-05-09T05:17:32.330Z,1.90
2023-05-09T05:18:33.953Z,1.80
2023-05-09T05:19:35.722Z,1.73
2023-05-09T05:20:37.357Z,1.73
2023-05-09T05:27:50.234Z,1.90
2023-05-09T05:30:55.628Z,2.00
2023-05-09T05:35:03.566Z,1.70
2023-05-09T05:37:07.207Z,1.70
2023-05-09T05:38:08.876Z,2.05
2023-05-09T05:39:10.413Z,1.60
2023-05-09T05:40:12.125Z,1.90
2023-05-09T05:41:13.689Z,1.70
2023-05-09T05:43:17.259Z,1.50
2023-05-09T05:44:18.840Z,1.65
2023-05-09T05:45:20.476Z,1.50
2023-05-09T05:46:22.139Z,1.45
2023-05-09T08:21:48.222Z,0.40
2023-05-09T08:22:49.827Z,0.40
2023-05-09T08:23:51.505Z,0.40
2023-05-09T08:24:53.065Z,0.70
2023-05-09T08:25:54.828Z,0.43
2023-05-09T08:26:56.443Z,0.50
2023-05-09T08:27:58.031Z,0.50
2023-05-09T08:28:59.585Z,0.38
2023-05-09T08:30:01.154Z,0.40
2023-05-09T08:31:02.727Z,0.47
2023-05-09T08:32:04.488Z,0.50
2023-05-09T08:33:06.117Z,0.40
2023-05-09T08:34:07.780Z,0.40
2023-05-09T08:35:09.397Z,0.40
2023-05-09T08:36:10.970Z,0.45
2023-05-09T08:37:14.953Z,0.40
2023-05-09T08:38:16.967Z,0.47
2023-05-09T08:39:18.497Z,0.40
2023-05-09T08:40:20.141Z,0.43
2023-05-09T08:41:24.978Z,0.30
2023-05-09T08:42:27.379Z,0.40
2023-05-09T08:43:29.473Z,0.45
2023-05-09T08:44:31.268Z,0.30
2023-05-09T08:45:34.929Z,0.40
2023-05-09T08:46:41.704Z,0.30
2023-05-09T08:47:43.825Z,0.40
2023-05-09T08:48:45.657Z,0.30
2023-05-09T08:49:47.764Z,0.32
2023-05-09T08:50:49.830Z,0.40
2023-05-09T10:45:41.946Z,0.38
